PWSweather.com
Personal Weather Stations
Station Observations
KTXSHORE2
Houston Yacht Club, Shoreacres, TX 77571

Houston Yacht ClubShoreacres, TX 77571

Lat: 29.622278, Lon: -94.99543

Elevation: 12

Station Type: Davis Vantagevue

Latest ConditionsUpdated 3:10:02 AM CST Friday, Feb 22, 2019
Currently Today's Max Today's Min Today's Average
Temperature 52.2°F11.2°C 53.4°F11.9°C 52.0°F11.1°C 52.8°F11.6°C
Dew Point -- -- -- --
Winds 11.0 mph N17.7 kmh N 15.0 mph -24.1 kmh - - 10.3 mph 16.6 kmh
Wind Gusts -- -- - -
Humidity 100% 100% 99% 99%
Pressure 29.93 in1013.5 mb 29.94 in1013.9 mb 29.90 in1012.5 mb -
Hour Temp Dew Point Humidity Winds Wind Gusts Pressure Precip Precip Rate Daily Precip Total
03:10 AM 52.2°F11.2°C -- 100% 11.0 mph N17.7 kmh N -- 29.93 in1013.5 mb 0.00 in0.0 mm 0.00 in0.0 mm 0.00 in0.0 mm
03:09 AM 52.0°F11.1°C -- 100% 11.0 mph N17.7 kmh N -- 29.93 in1013.5 mb 0.00 in0.0 mm 0.00 in0.0 mm 0.00 in0.0 mm
03:08 AM 52.0°F11.1°C -- 100% 11.0 mph N17.7 kmh N -- 29.93 in1013.5 mb 0.00 in0.0 mm 0.00 in0.0 mm 0.00 in0.0 mm
03:07 AM 52.0°F11.1°C -- 100% 10.1 mph N16.3 kmh N -- 29.93 in1013.5 mb 0.00 in0.0 mm 0.00 in0.0 mm 0.00 in0.0 mm
03:06 AM 52.2°F11.2°C -- 100% 12.1 mph N19.5 kmh N -- 29.93 in1013.5 mb 0.00 in0.0 mm 0.00 in0.0 mm 0.00 in0.0 mm
03:05 AM 52.0°F11.1°C -- 100% 8.9 mph NNE14.3 kmh NNE -- 29.93 in1013.5 mb 0.00 in0.0 mm 0.00 in0.0 mm 0.00 in0.0 mm
03:04 AM 52.0°F11.1°C -- 99% 10.1 mph NE16.3 kmh NE -- 29.93 in1013.5 mb 0.00 in0.0 mm 0.00 in0.0 mm 0.00 in0.0 mm
03:03 AM 52.0°F11.1°C -- 99% 10.1 mph N16.3 kmh N -- 29.93 in1013.5 mb 0.00 in0.0 mm 0.00 in0.0 mm 0.00 in0.0 mm
03:02 AM 52.0°F11.1°C -- 100% 11.0 mph N17.7 kmh N -- 29.93 in1013.5 mb 0.00 in0.0 mm 0.00 in0.0 mm 0.00 in0.0 mm
03:01 AM 52.0°F11.1°C -- 99% 8.9 mph N14.3 kmh N -- 29.93 in1013.5 mb 0.00 in0.0 mm 0.00 in0.0 mm 0.00 in0.0 mm
03:00 AM 52.0°F11.1°C -- 99% 11.0 mph N17.7 kmh N -- 29.92 in1013.2 mb 0.00 in0.0 mm 0.00 in0.0 mm 0.00 in0.0 mm
02:59 AM 52.0°F11.1°C -- 99% 12.1 mph N19.5 kmh N -- 29.93 in1013.5 mb 0.00 in0.0 mm 0.00 in0.0 mm 0.00 in0.0 mm
02:58 AM 52.0°F11.1°C -- 99% 10.1 mph N16.3 kmh N -- 29.93 in1013.5 mb 0.00 in0.0 mm 0.00 in0.0 mm 0.00 in0.0 mm
02:57 AM 52.2°F11.2°C -- 100% 10.1 mph N16.3 kmh N -- 29.93 in1013.5 mb 0.00 in0.0 mm 0.00 in0.0 mm 0.00 in0.0 mm
02:56 AM 52.2°F11.2°C -- 100% 8.9 mph N14.3 kmh N -- 29.93 in1013.5 mb 0.00 in0.0 mm 0.00 in0.0 mm 0.00 in0.0 mm
02:55 AM 52.2°F11.2°C -- 100% 10.1 mph NNW16.3 kmh NNW -- 29.94 in1013.9 mb 0.00 in0.0 mm 0.00 in0.0 mm 0.00 in0.0 mm
02:54 AM 52.2°F11.2°C -- 100% 12.1 mph N19.5 kmh N -- 29.93 in1013.5 mb 0.00 in0.0 mm 0.00 in0.0 mm 0.00 in0.0 mm
02:53 AM 52.2°F11.2°C -- 100% 13.0 mph N20.9 kmh N -- 29.93 in1013.5 mb 0.00 in0.0 mm 0.00 in0.0 mm 0.00 in0.0 mm
02:52 AM 52.0°F11.1°C -- 100% 14.1 mph N22.7 kmh N -- 29.93 in1013.5 mb 0.00 in0.0 mm 0.00 in0.0 mm 0.00 in0.0 mm
02:51 AM 52.2°F11.2°C -- 100% 11.0 mph NNW17.7 kmh NNW -- 29.93 in1013.5 mb 0.00 in0.0 mm 0.00 in0.0 mm 0.00 in0.0 mm
02:50 AM 52.2°F11.2°C -- 100% 13.0 mph N20.9 kmh N -- 29.93 in1013.5 mb 0.00 in0.0 mm 0.00 in0.0 mm 0.00 in0.0 mm
02:49 AM 52.2°F11.2°C -- 99% 11.0 mph N17.7 kmh N -- 29.93 in1013.5 mb 0.00 in0.0 mm 0.00 in0.0 mm 0.00 in0.0 mm
02:48 AM 52.2°F11.2°C -- 99% 6.9 mph NNW11.1 kmh NNW -- 29.94 in1013.9 mb 0.00 in0.0 mm 0.00 in0.0 mm 0.00 in0.0 mm
02:47 AM 52.0°F11.1°C -- 99% 11.0 mph N17.7 kmh N -- 29.94 in1013.9 mb 0.00 in0.0 mm 0.00 in0.0 mm 0.00 in0.0 mm
02:46 AM 52.0°F11.1°C -- 99% 10.1 mph NNW16.3 kmh NNW -- 29.94 in1013.9 mb 0.00 in0.0 mm 0.00 in0.0 mm 0.00 in0.0 mm
02:45 AM 52.2°F11.2°C -- 99% 12.1 mph NNW19.5 kmh NNW -- 29.94 in1013.9 mb 0.00 in0.0 mm 0.00 in0.0 mm 0.00 in0.0 mm
02:44 AM 52.0°F11.1°C -- 99% 14.1 mph N22.7 kmh N -- 29.93 in1013.5 mb 0.00 in0.0 mm 0.00 in0.0 mm 0.00 in0.0 mm
02:43 AM 52.2°F11.2°C -- 99% 11.0 mph N17.7 kmh N -- 29.93 in1013.5 mb 0.00 in0.0 mm 0.00 in0.0 mm 0.00 in0.0 mm
02:42 AM 52.2°F11.2°C -- 99% 12.1 mph NNE19.5 kmh NNE -- 29.93 in1013.5 mb 0.00 in0.0 mm 0.00 in0.0 mm 0.00 in0.0 mm
02:41 AM 52.2°F11.2°C -- 99% 11.0 mph N17.7 kmh N -- 29.93 in1013.5 mb 0.00 in0.0 mm 0.00 in0.0 mm 0.00 in0.0 mm
02:40 AM 52.2°F11.2°C -- 99% 11.0 mph N17.7 kmh N -- 29.93 in1013.5 mb 0.00 in0.0 mm 0.00 in0.0 mm 0.00 in0.0 mm
02:39 AM 52.2°F11.2°C -- 99% 11.0 mph N17.7 kmh N -- 29.93 in1013.5 mb 0.00 in0.0 mm 0.00 in0.0 mm 0.00 in0.0 mm
02:38 AM 52.2°F11.2°C -- 99% 12.1 mph N19.5 kmh N -- 29.93 in1013.5 mb 0.00 in0.0 mm 0.00 in0.0 mm 0.00 in0.0 mm
02:37 AM 52.2°F11.2°C -- 99% 13.0 mph N20.9 kmh N -- 29.93 in1013.5 mb 0.00 in0.0 mm 0.00 in0.0 mm 0.00 in0.0 mm
02:36 AM 52.2°F11.2°C -- 99% 13.0 mph N20.9 kmh N -- 29.93 in1013.5 mb 0.00 in0.0 mm 0.00 in0.0 mm 0.00 in0.0 mm
02:35 AM 52.2°F11.2°C -- 99% 12.1 mph NNE19.5 kmh NNE -- 29.93 in1013.5 mb 0.00 in0.0 mm 0.00 in0.0 mm 0.00 in0.0 mm
02:34 AM 52.2°F11.2°C -- 99% 11.0 mph N17.7 kmh N -- 29.93 in1013.5 mb 0.00 in0.0 mm 0.00 in0.0 mm 0.00 in0.0 mm
02:33 AM 52.2°F11.2°C -- 99% 10.1 mph N16.3 kmh N -- 29.93 in1013.5 mb 0.00 in0.0 mm 0.00 in0.0 mm 0.00 in0.0 mm
02:32 AM 52.2°F11.2°C -- 99% 11.0 mph N17.7 kmh N -- 29.93 in1013.5 mb 0.00 in0.0 mm 0.00 in0.0 mm 0.00 in0.0 mm
02:31 AM 52.2°F11.2°C -- 99% 12.1 mph N19.5 kmh N -- 29.93 in1013.5 mb 0.00 in0.0 mm 0.00 in0.0 mm 0.00 in0.0 mm
02:30 AM 52.2°F11.2°C -- 100% 14.1 mph N22.7 kmh N -- 29.93 in1013.5 mb 0.00 in0.0 mm 0.00 in0.0 mm 0.00 in0.0 mm
02:29 AM 52.2°F11.2°C -- 100% 11.0 mph NE17.7 kmh NE -- 29.93 in1013.5 mb 0.00 in0.0 mm 0.00 in0.0 mm 0.00 in0.0 mm
02:28 AM 52.3°F11.3°C -- 100% 10.1 mph N16.3 kmh N -- 29.93 in1013.5 mb 0.00 in0.0 mm 0.00 in0.0 mm 0.00 in0.0 mm
02:27 AM 52.3°F11.3°C -- 99% 11.0 mph N17.7 kmh N -- 29.93 in1013.5 mb 0.00 in0.0 mm 0.00 in0.0 mm 0.00 in0.0 mm
02:26 AM 52.3°F11.3°C -- 99% 10.1 mph N16.3 kmh N -- 29.93 in1013.5 mb 0.00 in0.0 mm 0.00 in0.0 mm 0.00 in0.0 mm
02:25 AM 52.3°F11.3°C -- 99% 11.0 mph N17.7 kmh N -- 29.93 in1013.5 mb 0.00 in0.0 mm 0.00 in0.0 mm 0.00 in0.0 mm
02:24 AM 52.2°F11.2°C -- 99% 10.1 mph N16.3 kmh N -- 29.93 in1013.5 mb 0.00 in0.0 mm 0.00 in0.0 mm 0.00 in0.0 mm
02:23 AM 52.2°F11.2°C -- 99% 10.1 mph NNW16.3 kmh NNW -- 29.93 in1013.5 mb 0.00 in0.0 mm 0.00 in0.0 mm 0.00 in0.0 mm
02:22 AM 52.2°F11.2°C -- 99% 13.0 mph N20.9 kmh N -- 29.93 in1013.5 mb 0.00 in0.0 mm 0.00 in0.0 mm 0.00 in0.0 mm
02:21 AM 52.2°F11.2°C -- 99% 12.1 mph N19.5 kmh N -- 29.93 in1013.5 mb 0.00 in0.0 mm 0.00 in0.0 mm 0.00 in0.0 mm
02:20 AM 52.3°F11.3°C -- 99% 12.1 mph N19.5 kmh N -- 29.93 in1013.5 mb 0.00 in0.0 mm 0.00 in0.0 mm 0.00 in0.0 mm
02:19 AM 52.2°F11.2°C -- 99% 8.9 mph N14.3 kmh N -- 29.93 in1013.5 mb 0.00 in0.0 mm 0.00 in0.0 mm 0.00 in0.0 mm
02:18 AM 52.2°F11.2°C -- 99% 11.0 mph N17.7 kmh N -- 29.93 in1013.5 mb 0.00 in0.0 mm 0.00 in0.0 mm 0.00 in0.0 mm
02:17 AM 52.3°F11.3°C -- 99% 10.1 mph N16.3 kmh N -- 29.93 in1013.5 mb 0.00 in0.0 mm 0.00 in0.0 mm 0.00 in0.0 mm
02:16 AM 52.3°F11.3°C -- 100% 12.1 mph NNW19.5 kmh NNW -- 29.93 in1013.5 mb 0.00 in0.0 mm 0.00 in0.0 mm 0.00 in0.0 mm
02:15 AM 52.3°F11.3°C -- 100% 11.0 mph N17.7 kmh N -- 29.93 in1013.5 mb 0.00 in0.0 mm 0.00 in0.0 mm 0.00 in0.0 mm
02:14 AM 52.3°F11.3°C -- 99% 12.1 mph N19.5 kmh N -- 29.93 in1013.5 mb 0.00 in0.0 mm 0.00 in0.0 mm 0.00 in0.0 mm
02:13 AM 52.3°F11.3°C -- 99% 10.1 mph N16.3 kmh N -- 29.94 in1013.9 mb 0.00 in0.0 mm 0.00 in0.0 mm 0.00 in0.0 mm
02:12 AM 52.3°F11.3°C -- 99% 12.1 mph N19.5 kmh N -- 29.94 in1013.9 mb 0.00 in0.0 mm 0.00 in0.0 mm 0.00 in0.0 mm
02:11 AM 52.3°F11.3°C -- 99% 12.1 mph N19.5 kmh N -- 29.94 in1013.9 mb 0.00 in0.0 mm 0.00 in0.0 mm 0.00 in0.0 mm
02:10 AM 52.3°F11.3°C -- 99% 12.1 mph N19.5 kmh N -- 29.94 in1013.9 mb 0.00 in0.0 mm 0.00 in0.0 mm 0.00 in0.0 mm
02:09 AM 52.3°F11.3°C -- 99% 13.0 mph N20.9 kmh N -- 29.94 in1013.9 mb 0.00 in0.0 mm 0.00 in0.0 mm 0.00 in0.0 mm
02:08 AM 52.3°F11.3°C -- 99% 12.1 mph N19.5 kmh N -- 29.94 in1013.9 mb 0.00 in0.0 mm 0.00 in0.0 mm 0.00 in0.0 mm
02:07 AM 52.3°F11.3°C -- 99% 11.0 mph N17.7 kmh N -- 29.94 in1013.9 mb 0.00 in0.0 mm 0.00 in0.0 mm 0.00 in0.0 mm
02:06 AM 52.3°F11.3°C -- 99% 10.1 mph N16.3 kmh N -- 29.94 in1013.9 mb 0.00 in0.0 mm 0.00 in0.0 mm 0.00 in0.0 mm
02:05 AM 52.3°F11.3°C -- 99% 11.0 mph N17.7 kmh N -- 29.94 in1013.9 mb 0.00 in0.0 mm 0.00 in0.0 mm 0.00 in0.0 mm
02:04 AM 52.3°F11.3°C -- 99% 12.1 mph N19.5 kmh N -- 29.94 in1013.9 mb 0.00 in0.0 mm 0.00 in0.0 mm 0.00 in0.0 mm
02:03 AM 52.3°F11.3°C -- 99% 13.0 mph N20.9 kmh N -- 29.94 in1013.9 mb 0.00 in0.0 mm 0.00 in0.0 mm 0.00 in0.0 mm
02:02 AM 52.3°F11.3°C -- 99% 12.1 mph N19.5 kmh N -- 29.94 in1013.9 mb 0.00 in0.0 mm 0.00 in0.0 mm 0.00 in0.0 mm
02:01 AM 52.3°F11.3°C -- 99% 13.0 mph N20.9 kmh N -- 29.94 in1013.9 mb 0.00 in0.0 mm 0.00 in0.0 mm 0.00 in0.0 mm
02:00 AM 52.3°F11.3°C -- 99% 12.1 mph N19.5 kmh N -- 29.94 in1013.9 mb 0.00 in0.0 mm 0.00 in0.0 mm 0.00 in0.0 mm
01:59 AM 52.3°F11.3°C -- 99% 14.1 mph N22.7 kmh N -- 29.94 in1013.9 mb 0.00 in0.0 mm 0.00 in0.0 mm 0.00 in0.0 mm
01:58 AM 52.5°F11.4°C -- 99% 13.0 mph NNW20.9 kmh NNW -- 29.94 in1013.9 mb 0.00 in0.0 mm 0.00 in0.0 mm 0.00 in0.0 mm
01:57 AM 52.5°F11.4°C -- 99% 11.0 mph NNW17.7 kmh NNW -- 29.94 in1013.9 mb 0.00 in0.0 mm 0.00 in0.0 mm 0.00 in0.0 mm
01:56 AM 52.3°F11.3°C -- 99% 13.0 mph N20.9 kmh N -- 29.94 in1013.9 mb 0.00 in0.0 mm 0.00 in0.0 mm 0.00 in0.0 mm
01:55 AM 52.3°F11.3°C -- 99% 13.0 mph N20.9 kmh N -- 29.94 in1013.9 mb 0.00 in0.0 mm 0.00 in0.0 mm 0.00 in0.0 mm
01:54 AM 52.3°F11.3°C -- 99% 12.1 mph N19.5 kmh N -- 29.94 in1013.9 mb 0.00 in0.0 mm 0.00 in0.0 mm 0.00 in0.0 mm
01:53 AM 52.3°F11.3°C -- 99% 10.1 mph NNW16.3 kmh NNW -- 29.94 in1013.9 mb 0.00 in0.0 mm 0.00 in0.0 mm 0.00 in0.0 mm
01:52 AM 52.5°F11.4°C -- 99% 13.0 mph N20.9 kmh N -- 29.94 in1013.9 mb 0.00 in0.0 mm 0.00 in0.0 mm 0.00 in0.0 mm
01:51 AM 52.5°F11.4°C -- 99% 14.1 mph N22.7 kmh N -- 29.94 in1013.9 mb 0.00 in0.0 mm 0.00 in0.0 mm 0.00 in0.0 mm
01:50 AM 52.5°F11.4°C -- 99% 15.0 mph N24.1 kmh N -- 29.94 in1013.9 mb 0.00 in0.0 mm 0.00 in0.0 mm 0.00 in0.0 mm
01:49 AM 52.5°F11.4°C -- 99% 14.1 mph N22.7 kmh N -- 29.94 in1013.9 mb 0.00 in0.0 mm 0.00 in0.0 mm 0.00 in0.0 mm
01:48 AM 52.5°F11.4°C -- 99% 14.1 mph N22.7 kmh N -- 29.94 in1013.9 mb 0.00 in0.0 mm 0.00 in0.0 mm 0.00 in0.0 mm
01:47 AM 52.7°F11.5°C -- 99% 13.0 mph NNW20.9 kmh NNW -- 29.94 in1013.9 mb 0.00 in0.0 mm 0.00 in0.0 mm 0.00 in0.0 mm
01:46 AM 52.9°F11.6°C -- 99% 15.0 mph N24.1 kmh N -- 29.94 in1013.9 mb 0.00 in0.0 mm 0.00 in0.0 mm 0.00 in0.0 mm
01:45 AM 52.9°F11.6°C -- 100% 12.1 mph N19.5 kmh N -- 29.94 in1013.9 mb 0.00 in0.0 mm 0.00 in0.0 mm 0.00 in0.0 mm
01:44 AM 52.9°F11.6°C -- 100% 11.0 mph N17.7 kmh N -- 29.94 in1013.9 mb 0.00 in0.0 mm 0.00 in0.0 mm 0.00 in0.0 mm
01:43 AM 52.9°F11.6°C -- 99% 13.0 mph N20.9 kmh N -- 29.94 in1013.9 mb 0.00 in0.0 mm 0.00 in0.0 mm 0.00 in0.0 mm
01:42 AM 52.9°F11.6°C -- 100% 11.0 mph N17.7 kmh N -- 29.94 in1013.9 mb 0.00 in0.0 mm 0.00 in0.0 mm 0.00 in0.0 mm
01:41 AM 52.9°F11.6°C -- 100% 12.1 mph N19.5 kmh N -- 29.93 in1013.5 mb 0.00 in0.0 mm 0.00 in0.0 mm 0.00 in0.0 mm
01:40 AM 52.9°F11.6°C -- 100% 12.1 mph NNE19.5 kmh NNE -- 29.93 in1013.5 mb 0.00 in0.0 mm 0.00 in0.0 mm 0.00 in0.0 mm
01:39 AM 52.9°F11.6°C -- 100% 14.1 mph NNE22.7 kmh NNE -- 29.93 in1013.5 mb 0.00 in0.0 mm 0.00 in0.0 mm 0.00 in0.0 mm
01:38 AM 53.1°F11.7°C -- 100% 11.0 mph N17.7 kmh N -- 29.93 in1013.5 mb 0.00 in0.0 mm 0.00 in0.0 mm 0.00 in0.0 mm
01:37 AM 53.1°F11.7°C -- 100% 11.0 mph NNW17.7 kmh NNW -- 29.93 in1013.5 mb 0.00 in0.0 mm 0.00 in0.0 mm 0.00 in0.0 mm
01:36 AM 53.2°F11.8°C -- 100% 12.1 mph N19.5 kmh N -- 29.93 in1013.5 mb 0.00 in0.0 mm 0.00 in0.0 mm 0.00 in0.0 mm
01:35 AM 53.2°F11.8°C -- 100% 10.1 mph N16.3 kmh N -- 29.93 in1013.5 mb 0.00 in0.0 mm 0.00 in0.0 mm 0.00 in0.0 mm
01:34 AM 53.2°F11.8°C -- 100% 8.1 mph N13.0 kmh N -- 29.94 in1013.9 mb 0.00 in0.0 mm 0.00 in0.0 mm 0.00 in0.0 mm
01:33 AM 53.2°F11.8°C -- 100% 6.9 mph NNE11.1 kmh NNE -- 29.93 in1013.5 mb 0.00 in0.0 mm 0.00 in0.0 mm 0.00 in0.0 mm
01:32 AM 53.2°F11.8°C -- 100% 12.1 mph N19.5 kmh N -- 29.94 in1013.9 mb 0.00 in0.0 mm 0.00 in0.0 mm 0.00 in0.0 mm
01:31 AM 53.2°F11.8°C -- 100% 8.9 mph N14.3 kmh N -- 29.93 in1013.5 mb 0.00 in0.0 mm 0.00 in0.0 mm 0.00 in0.0 mm
01:30 AM 53.1°F11.7°C -- 100% 8.1 mph N13.0 kmh N -- 29.93 in1013.5 mb 0.00 in0.0 mm 0.00 in0.0 mm 0.00 in0.0 mm
01:29 AM 53.1°F11.7°C -- 100% 11.0 mph N17.7 kmh N -- 29.93 in1013.5 mb 0.00 in0.0 mm 0.00 in0.0 mm 0.00 in0.0 mm
01:28 AM 53.1°F11.7°C -- 100% 11.0 mph N17.7 kmh N -- 29.93 in1013.5 mb 0.00 in0.0 mm 0.00 in0.0 mm 0.00 in0.0 mm
01:27 AM 53.1°F11.7°C -- 100% 11.0 mph NNE17.7 kmh NNE -- 29.93 in1013.5 mb 0.00 in0.0 mm 0.00 in0.0 mm 0.00 in0.0 mm
01:26 AM 53.1°F11.7°C -- 100% 11.0 mph N17.7 kmh N -- 29.93 in1013.5 mb 0.00 in0.0 mm 0.00 in0.0 mm 0.00 in0.0 mm
01:25 AM 53.1°F11.7°C -- 100% 12.1 mph N19.5 kmh N -- 29.93 in1013.5 mb 0.00 in0.0 mm 0.00 in0.0 mm 0.00 in0.0 mm
01:24 AM 52.9°F11.6°C -- 100% 11.0 mph N17.7 kmh N -- 29.93 in1013.5 mb 0.00 in0.0 mm 0.00 in0.0 mm 0.00 in0.0 mm
01:23 AM 52.9°F11.6°C -- 99% 8.9 mph NNE14.3 kmh NNE -- 29.93 in1013.5 mb 0.00 in0.0 mm 0.00 in0.0 mm 0.00 in0.0 mm
01:22 AM 52.9°F11.6°C -- 99% 11.0 mph N17.7 kmh N -- 29.93 in1013.5 mb 0.00 in0.0 mm 0.00 in0.0 mm 0.00 in0.0 mm
01:21 AM 52.9°F11.6°C -- 100% 10.1 mph N16.3 kmh N -- 29.93 in1013.5 mb 0.00 in0.0 mm 0.00 in0.0 mm 0.00 in0.0 mm
01:20 AM 52.9°F11.6°C -- 100% 11.0 mph N17.7 kmh N -- 29.94 in1013.9 mb 0.00 in0.0 mm 0.00 in0.0 mm 0.00 in0.0 mm
01:19 AM 52.9°F11.6°C -- 100% 10.1 mph NNW16.3 kmh NNW -- 29.94 in1013.9 mb 0.00 in0.0 mm 0.00 in0.0 mm 0.00 in0.0 mm
01:18 AM 52.9°F11.6°C -- 100% 10.1 mph NNW16.3 kmh NNW -- 29.94 in1013.9 mb 0.00 in0.0 mm 0.00 in0.0 mm 0.00 in0.0 mm
01:17 AM 52.9°F11.6°C -- 99% 8.9 mph NNW14.3 kmh NNW -- 29.94 in1013.9 mb 0.00 in0.0 mm 0.00 in0.0 mm 0.00 in0.0 mm
01:16 AM 52.9°F11.6°C -- 99% 11.0 mph N17.7 kmh N -- 29.94 in1013.9 mb 0.00 in0.0 mm 0.00 in0.0 mm 0.00 in0.0 mm
01:15 AM 52.9°F11.6°C -- 99% 11.0 mph N17.7 kmh N -- 29.94 in1013.9 mb 0.00 in0.0 mm 0.00 in0.0 mm 0.00 in0.0 mm
01:14 AM 52.9°F11.6°C -- 99% 10.1 mph NNW16.3 kmh NNW -- 29.94 in1013.9 mb 0.00 in0.0 mm 0.00 in0.0 mm 0.00 in0.0 mm
01:13 AM 52.9°F11.6°C -- 99% 10.1 mph NNW16.3 kmh NNW -- 29.94 in1013.9 mb 0.00 in0.0 mm 0.00 in0.0 mm 0.00 in0.0 mm
01:12 AM 52.9°F11.6°C -- 99% 8.9 mph N14.3 kmh N -- 29.94 in1013.9 mb 0.00 in0.0 mm 0.00 in0.0 mm 0.00 in0.0 mm
01:11 AM 52.9°F11.6°C -- 99% 13.0 mph N20.9 kmh N -- 29.93 in1013.5 mb 0.00 in0.0 mm 0.00 in0.0 mm 0.00 in0.0 mm
01:10 AM 52.9°F11.6°C -- 99% 8.9 mph N14.3 kmh N -- 29.93 in1013.5 mb 0.00 in0.0 mm 0.00 in0.0 mm 0.00 in0.0 mm
01:09 AM 52.9°F11.6°C -- 99% 10.1 mph N16.3 kmh N -- 29.93 in1013.5 mb 0.00 in0.0 mm 0.00 in0.0 mm 0.00 in0.0 mm
01:08 AM 53.1°F11.7°C -- 99% 11.0 mph N17.7 kmh N -- 29.93 in1013.5 mb 0.00 in0.0 mm 0.00 in0.0 mm 0.00 in0.0 mm
01:07 AM 53.1°F11.7°C -- 99% 11.0 mph N17.7 kmh N -- 29.93 in1013.5 mb 0.00 in0.0 mm 0.00 in0.0 mm 0.00 in0.0 mm
01:06 AM 53.1°F11.7°C -- 99% 8.9 mph N14.3 kmh N -- 29.93 in1013.5 mb 0.00 in0.0 mm 0.00 in0.0 mm 0.00 in0.0 mm
01:05 AM 53.1°F11.7°C -- 99% 10.1 mph N16.3 kmh N -- 29.93 in1013.5 mb 0.00 in0.0 mm 0.00 in0.0 mm 0.00 in0.0 mm
01:04 AM 53.1°F11.7°C -- 99% 10.1 mph N16.3 kmh N -- 29.93 in1013.5 mb 0.00 in0.0 mm 0.00 in0.0 mm 0.00 in0.0 mm
01:03 AM 52.9°F11.6°C -- 99% 10.1 mph N16.3 kmh N -- 29.93 in1013.5 mb 0.00 in0.0 mm 0.00 in0.0 mm 0.00 in0.0 mm
01:02 AM 53.1°F11.7°C -- 99% 11.0 mph N17.7 kmh N -- 29.93 in1013.5 mb 0.00 in0.0 mm 0.00 in0.0 mm 0.00 in0.0 mm
01:01 AM 53.1°F11.7°C -- 99% 10.1 mph N16.3 kmh N -- 29.93 in1013.5 mb 0.00 in0.0 mm 0.00 in0.0 mm 0.00 in0.0 mm
01:00 AM 53.1°F11.7°C -- 99% 8.1 mph N13.0 kmh N -- 29.93 in1013.5 mb 0.00 in0.0 mm 0.00 in0.0 mm 0.00 in0.0 mm
12:59 AM 53.1°F11.7°C -- 99% 6.9 mph N11.1 kmh N -- 29.93 in1013.5 mb 0.00 in0.0 mm 0.00 in0.0 mm 0.00 in0.0 mm
12:58 AM 53.1°F11.7°C -- 99% 10.1 mph N16.3 kmh N -- 29.93 in1013.5 mb 0.00 in0.0 mm 0.00 in0.0 mm 0.00 in0.0 mm
12:57 AM 53.1°F11.7°C -- 99% 8.1 mph N13.0 kmh N -- 29.93 in1013.5 mb 0.00 in0.0 mm 0.00 in0.0 mm 0.00 in0.0 mm
12:56 AM 53.1°F11.7°C -- 99% 8.9 mph N14.3 kmh N -- 29.93 in1013.5 mb 0.00 in0.0 mm 0.00 in0.0 mm 0.00 in0.0 mm
12:55 AM 53.1°F11.7°C -- 99% 8.9 mph N14.3 kmh N -- 29.93 in1013.5 mb 0.00 in0.0 mm 0.00 in0.0 mm 0.00 in0.0 mm
12:54 AM 53.2°F11.8°C -- 99% 8.9 mph N14.3 kmh N -- 29.93 in1013.5 mb 0.00 in0.0 mm 0.00 in0.0 mm 0.00 in0.0 mm
12:53 AM 53.2°F11.8°C -- 99% 10.1 mph N16.3 kmh N -- 29.93 in1013.5 mb 0.00 in0.0 mm 0.00 in0.0 mm 0.00 in0.0 mm
12:52 AM 53.2°F11.8°C -- 100% 8.9 mph N14.3 kmh N -- 29.92 in1013.2 mb 0.00 in0.0 mm 0.00 in0.0 mm 0.00 in0.0 mm
12:51 AM 53.2°F11.8°C -- 99% 10.1 mph NNW16.3 kmh NNW -- 29.92 in1013.2 mb 0.00 in0.0 mm 0.00 in0.0 mm 0.00 in0.0 mm
12:50 AM 53.2°F11.8°C -- 100% 8.9 mph N14.3 kmh N -- 29.93 in1013.5 mb 0.00 in0.0 mm 0.00 in0.0 mm 0.00 in0.0 mm
12:49 AM 53.2°F11.8°C -- 100% 6.9 mph N11.1 kmh N -- 29.93 in1013.5 mb 0.00 in0.0 mm 0.00 in0.0 mm 0.00 in0.0 mm
12:48 AM 53.2°F11.8°C -- 100% 6.9 mph NNE11.1 kmh NNE -- 29.93 in1013.5 mb 0.00 in0.0 mm 0.00 in0.0 mm 0.00 in0.0 mm
12:47 AM 53.2°F11.8°C -- 99% 8.9 mph NNE14.3 kmh NNE -- 29.93 in1013.5 mb 0.00 in0.0 mm 0.00 in0.0 mm 0.00 in0.0 mm
12:46 AM 53.2°F11.8°C -- 99% 10.1 mph NNE16.3 kmh NNE -- 29.93 in1013.5 mb 0.00 in0.0 mm 0.00 in0.0 mm 0.00 in0.0 mm
12:45 AM 53.2°F11.8°C -- 99% 8.1 mph NNE13.0 kmh NNE -- 29.93 in1013.5 mb 0.00 in0.0 mm 0.00 in0.0 mm 0.00 in0.0 mm
12:44 AM 53.2°F11.8°C -- 99% 6.9 mph N11.1 kmh N -- 29.93 in1013.5 mb 0.00 in0.0 mm 0.00 in0.0 mm 0.00 in0.0 mm
12:43 AM 53.2°F11.8°C -- 99% 8.9 mph NNE14.3 kmh NNE -- 29.93 in1013.5 mb 0.00 in0.0 mm 0.00 in0.0 mm 0.00 in0.0 mm
12:42 AM 53.2°F11.8°C -- 99% 10.1 mph N16.3 kmh N -- 29.93 in1013.5 mb 0.00 in0.0 mm 0.00 in0.0 mm 0.00 in0.0 mm
12:41 AM 53.2°F11.8°C -- 99% 10.1 mph N16.3 kmh N -- 29.93 in1013.5 mb 0.00 in0.0 mm 0.00 in0.0 mm 0.00 in0.0 mm
12:40 AM 53.2°F11.8°C -- 99% 10.1 mph N16.3 kmh N -- 29.93 in1013.5 mb 0.00 in0.0 mm 0.00 in0.0 mm 0.00 in0.0 mm
12:39 AM 53.2°F11.8°C -- 99% 8.9 mph N14.3 kmh N -- 29.93 in1013.5 mb 0.00 in0.0 mm 0.00 in0.0 mm 0.00 in0.0 mm
12:38 AM 53.2°F11.8°C -- 99% 10.1 mph N16.3 kmh N -- 29.92 in1013.2 mb 0.00 in0.0 mm 0.00 in0.0 mm 0.00 in0.0 mm
12:37 AM 53.4°F11.9°C -- 99% 12.1 mph N19.5 kmh N -- 29.92 in1013.2 mb 0.00 in0.0 mm 0.00 in0.0 mm 0.00 in0.0 mm
12:36 AM 53.4°F11.9°C -- 100% 8.9 mph NNE14.3 kmh NNE -- 29.93 in1013.5 mb 0.00 in0.0 mm 0.00 in0.0 mm 0.00 in0.0 mm
12:35 AM 53.4°F11.9°C -- 100% 11.0 mph NE17.7 kmh NE -- 29.92 in1013.2 mb 0.00 in0.0 mm 0.00 in0.0 mm 0.00 in0.0 mm
12:34 AM 53.4°F11.9°C -- 100% 8.9 mph NNE14.3 kmh NNE -- 29.92 in1013.2 mb 0.00 in0.0 mm 0.00 in0.0 mm 0.00 in0.0 mm
12:33 AM 53.4°F11.9°C -- 100% 11.0 mph N17.7 kmh N -- 29.92 in1013.2 mb 0.00 in0.0 mm 0.00 in0.0 mm 0.00 in0.0 mm
12:32 AM 53.4°F11.9°C -- 100% 10.1 mph NE16.3 kmh NE -- 29.92 in1013.2 mb 0.00 in0.0 mm 0.00 in0.0 mm 0.00 in0.0 mm
12:31 AM 53.4°F11.9°C -- 99% 10.1 mph N16.3 kmh N -- 29.92 in1013.2 mb 0.00 in0.0 mm 0.00 in0.0 mm 0.00 in0.0 mm
12:30 AM 53.4°F11.9°C -- 99% 8.9 mph N14.3 kmh N -- 29.92 in1013.2 mb 0.00 in0.0 mm 0.00 in0.0 mm 0.00 in0.0 mm
12:29 AM 53.4°F11.9°C -- 99% 6.9 mph NE11.1 kmh NE -- 29.92 in1013.2 mb 0.00 in0.0 mm 0.00 in0.0 mm 0.00 in0.0 mm
12:28 AM 53.4°F11.9°C -- 99% 6.9 mph NNE11.1 kmh NNE -- 29.92 in1013.2 mb 0.00 in0.0 mm 0.00 in0.0 mm 0.00 in0.0 mm
12:27 AM 53.4°F11.9°C -- 100% 10.1 mph NE16.3 kmh NE -- 29.92 in1013.2 mb 0.00 in0.0 mm 0.00 in0.0 mm 0.00 in0.0 mm
12:26 AM 53.4°F11.9°C -- 100% 8.9 mph NNE14.3 kmh NNE -- 29.92 in1013.2 mb 0.00 in0.0 mm 0.00 in0.0 mm 0.00 in0.0 mm
12:25 AM 53.4°F11.9°C -- 100% 8.9 mph NE14.3 kmh NE -- 29.92 in1013.2 mb 0.00 in0.0 mm 0.00 in0.0 mm 0.00 in0.0 mm
12:24 AM 53.4°F11.9°C -- 99% 11.0 mph NNE17.7 kmh NNE -- 29.92 in1013.2 mb 0.00 in0.0 mm 0.00 in0.0 mm 0.00 in0.0 mm
12:23 AM 53.4°F11.9°C -- 99% 6.9 mph NE11.1 kmh NE -- 29.92 in1013.2 mb 0.00 in0.0 mm 0.00 in0.0 mm 0.00 in0.0 mm
12:22 AM 53.4°F11.9°C -- 99% 10.1 mph NNE16.3 kmh NNE -- 29.92 in1013.2 mb 0.00 in0.0 mm 0.00 in0.0 mm 0.00 in0.0 mm
12:21 AM 53.2°F11.8°C -- 99% 6.9 mph NNE11.1 kmh NNE -- 29.92 in1013.2 mb 0.00 in0.0 mm 0.00 in0.0 mm 0.00 in0.0 mm
12:20 AM 53.4°F11.9°C -- 99% 8.9 mph NE14.3 kmh NE -- 29.92 in1013.2 mb 0.00 in0.0 mm 0.00 in0.0 mm 0.00 in0.0 mm
12:19 AM 53.4°F11.9°C -- 100% 8.1 mph NE13.0 kmh NE -- 29.92 in1013.2 mb 0.00 in0.0 mm 0.00 in0.0 mm 0.00 in0.0 mm
12:18 AM 53.4°F11.9°C -- 99% 10.1 mph NNE16.3 kmh NNE -- 29.92 in1013.2 mb 0.00 in0.0 mm 0.00 in0.0 mm 0.00 in0.0 mm
12:17 AM 53.4°F11.9°C -- 99% 6.9 mph NNE11.1 kmh NNE -- 29.92 in1013.2 mb 0.00 in0.0 mm 0.00 in0.0 mm 0.00 in0.0 mm
12:16 AM 53.4°F11.9°C -- 99% 6.0 mph NE9.7 kmh NE -- 29.91 in1012.9 mb 0.00 in0.0 mm 0.00 in0.0 mm 0.00 in0.0 mm
12:15 AM 53.4°F11.9°C -- 99% 11.0 mph NE17.7 kmh NE -- 29.91 in1012.9 mb 0.00 in0.0 mm 0.00 in0.0 mm 0.00 in0.0 mm
12:14 AM 53.2°F11.8°C -- 99% 8.9 mph NE14.3 kmh NE -- 29.90 in1012.5 mb 0.00 in0.0 mm 0.00 in0.0 mm 0.00 in0.0 mm
12:13 AM 53.4°F11.9°C -- 99% 8.1 mph NE13.0 kmh NE -- 29.90 in1012.5 mb 0.00 in0.0 mm 0.00 in0.0 mm 0.00 in0.0 mm
12:12 AM 53.4°F11.9°C -- 99% 10.1 mph NNE16.3 kmh NNE -- 29.90 in1012.5 mb 0.00 in0.0 mm 0.00 in0.0 mm 0.00 in0.0 mm
12:11 AM 53.4°F11.9°C -- 99% 8.1 mph NE13.0 kmh NE -- 29.90 in1012.5 mb 0.00 in0.0 mm 0.00 in0.0 mm 0.00 in0.0 mm
12:10 AM 53.4°F11.9°C -- 99% 8.1 mph NE13.0 kmh NE -- 29.90 in1012.5 mb 0.00 in0.0 mm 0.00 in0.0 mm 0.00 in0.0 mm
12:09 AM 53.4°F11.9°C -- 99% 8.9 mph NNE14.3 kmh NNE -- 29.90 in1012.5 mb 0.00 in0.0 mm 0.00 in0.0 mm 0.00 in0.0 mm
12:08 AM 53.2°F11.8°C -- 99% 6.9 mph ENE11.1 kmh ENE -- 29.91 in1012.9 mb 0.00 in0.0 mm 0.00 in0.0 mm 0.00 in0.0 mm
12:07 AM 53.2°F11.8°C -- 99% 8.9 mph NE14.3 kmh NE -- 29.91 in1012.9 mb 0.00 in0.0 mm 0.00 in0.0 mm 0.00 in0.0 mm
12:06 AM 53.2°F11.8°C -- 99% 8.9 mph NE14.3 kmh NE -- 29.91 in1012.9 mb 0.00 in0.0 mm 0.00 in0.0 mm 0.00 in0.0 mm
12:05 AM 53.4°F11.9°C -- 99% 10.1 mph NE16.3 kmh NE -- 29.92 in1013.2 mb 0.00 in0.0 mm 0.00 in0.0 mm 0.00 in0.0 mm
12:04 AM 53.4°F11.9°C -- 99% 6.0 mph NE9.7 kmh NE -- 29.92 in1013.2 mb 0.00 in0.0 mm 0.00 in0.0 mm 0.00 in0.0 mm
12:03 AM 53.4°F11.9°C -- 99% 6.9 mph NE11.1 kmh NE -- 29.92 in1013.2 mb 0.00 in0.0 mm 0.00 in0.0 mm 0.00 in0.0 mm
12:02 AM 53.4°F11.9°C -- 99% 8.1 mph NNE13.0 kmh NNE -- 29.92 in1013.2 mb 0.00 in0.0 mm 0.00 in0.0 mm 0.00 in0.0 mm
12:01 AM 53.4°F11.9°C -- 99% 6.0 mph NE9.7 kmh NE -- 29.92 in1013.2 mb 0.00 in0.0 mm 0.00 in0.0 mm 0.00 in0.0 mm
12:00 AM 53.2°F11.8°C -- 99% 6.9 mph NE11.1 kmh NE -- 29.92 in1013.2 mb 0.00 in0.0 mm 0.00 in0.0 mm 0.00 in0.0 mm